Time;durP1;ratioP1;P1;durP2;ratioP2;P2;SDS_P1;SDS_P2;PMS_P1;PMS_P2;Temp;Humidity;BMP_temperature;BMP_pressure;BME280_temperature;BME280_humidity;BME280_pressure;Samples;Min_cycle;Max_cycle;Signal;HPM_P1;HPM_P2
2022/10/18 00:00:19;;;;;;;2.2;2;;;;;;;11.24;100;96271.56;;;;
2022/10/18 00:01:20;;;;;;;2.2;2;;;;;;;11.24;100;96271.56;;;;
2022/10/18 00:02:20;;;;;;;2.2;2;;;;;;;11.24;100;96271.56;;;;
2022/10/18 00:03:21;;;;;;;2.2;2;;;;;;;11.24;100;96271.56;;;;
2022/10/18 00:04:22;;;;;;;2.2;2;;;;;;;11.24;100;96271.56;;;;
2022/10/18 00:05:23;;;;;;;2.2;2;;;;;;;11.24;100;96271.56;;;;
2022/10/18 00:06:23;;;;;;;2.2;2;;;;;;;11.24;100;96271.56;;;;
2022/10/18 00:07:24;;;;;;;2.2;2;;;;;;;11.24;100;96271.56;;;;
2022/10/18 00:08:24;;;;;;;2.2;1.85;;;;;;;11.18;100;96270.09;;;;
2022/10/18 00:09:26;;;;;;;2.2;1.85;;;;;;;11.18;100;96270.09;;;;
2022/10/18 00:10:26;;;;;;;2.2;1.85;;;;;;;11.18;100;96270.09;;;;
2022/10/18 00:11:27;;;;;;;2.2;1.85;;;;;;;11.18;100;96270.09;;;;
2022/10/18 00:12:28;;;;;;;2.2;1.85;;;;;;;11.18;100;96270.09;;;;
2022/10/18 00:13:28;;;;;;;2.2;1.85;;;;;;;11.18;100;96270.09;;;;
2022/10/18 00:14:29;;;;;;;2.2;1.85;;;;;;;11.18;100;96270.09;;;;
2022/10/18 00:15:29;;;;;;;2.2;1.85;;;;;;;11.18;100;96270.09;;;;
2022/10/18 00:16:30;;;;;;;2.2;1.85;;;;;;;11.18;100;96270.09;;;;
2022/10/18 00:17:30;;;;;;;2.2;1.85;;;;;;;11.18;100;96270.09;;;;
2022/10/18 00:18:32;;;;;;;2.3;2.1;;;;;;;11.09;100;96271.64;;;;
2022/10/18 00:19:33;;;;;;;2.3;2.1;;;;;;;11.09;100;96271.64;;;;
2022/10/18 00:20:33;;;;;;;2.3;2.1;;;;;;;11.09;100;96271.64;;;;
2022/10/18 00:21:34;;;;;;;2.3;2.1;;;;;;;11.09;100;96271.64;;;;
2022/10/18 00:22:35;;;;;;;2.3;2.1;;;;;;;11.09;100;96271.64;;;;
2022/10/18 00:23:36;;;;;;;2.3;2.1;;;;;;;11.09;100;96271.64;;;;
2022/10/18 00:24:37;;;;;;;2.3;2.1;;;;;;;11.09;100;96271.64;;;;
2022/10/18 00:25:38;;;;;;;2.3;2.1;;;;;;;11.09;100;96271.64;;;;
2022/10/18 00:26:38;;;;;;;2.3;2.1;;;;;;;11.09;100;96271.64;;;;
2022/10/18 00:27:39;;;;;;;2.3;2.1;;;;;;;11.09;100;96271.64;;;;
2022/10/18 00:28:39;;;;;;;2.3;2.1;;;;;;;11.09;100;96271.64;;;;
2022/10/18 00:29:41;;;;;;;2.3;1.85;;;;;;;10.92;100;96275.16;;;;
2022/10/18 00:30:41;;;;;;;2.3;1.85;;;;;;;10.92;100;96275.16;;;;
2022/10/18 00:31:42;;;;;;;2.3;1.85;;;;;;;10.92;100;96275.16;;;;
2022/10/18 00:32:43;;;;;;;2.3;1.85;;;;;;;10.92;100;96275.16;;;;
2022/10/18 00:33:43;;;;;;;2.3;1.85;;;;;;;10.92;100;96275.16;;;;
2022/10/18 00:34:48;;;;;;;2.3;1.85;;;;;;;10.92;100;96275.16;;;;
2022/10/18 00:35:48;;;;;;;2.3;1.85;;;;;;;10.92;100;96275.16;;;;
2022/10/18 00:36:49;;;;;;;2.3;1.85;;;;;;;10.92;100;96275.16;;;;
2022/10/18 00:37:49;;;;;;;2.3;1.85;;;;;;;10.92;100;96275.16;;;;
2022/10/18 00:38:50;;;;;;;2.3;1.85;;;;;;;10.92;100;96275.16;;;;
2022/10/18 00:39:52;;;;;;;2.3;2.1;;;;;;;10.74;100;96265.92;;;;
2022/10/18 00:40:52;;;;;;;2.3;2.1;;;;;;;10.74;100;96265.92;;;;
2022/10/18 00:41:53;;;;;;;2.3;2.1;;;;;;;10.74;100;96265.92;;;;
2022/10/18 00:42:53;;;;;;;2.3;2.1;;;;;;;10.74;100;96265.92;;;;
2022/10/18 00:43:54;;;;;;;2.3;2.1;;;;;;;10.74;100;96265.92;;;;
2022/10/18 00:44:57;;;;;;;2.3;2.1;;;;;;;10.74;100;96265.92;;;;
2022/10/18 00:46:05;;;;;;;2.3;2.1;;;;;;;10.74;100;96265.92;;;;
2022/10/18 00:47:05;;;;;;;2.3;2.1;;;;;;;10.74;100;96265.92;;;;
2022/10/18 00:48:09;;;;;;;2.3;2.1;;;;;;;10.74;100;96265.92;;;;
2022/10/18 00:49:12;;;;;;;2.3;2.1;;;;;;;10.74;100;96265.92;;;;
2022/10/18 00:50:16;;;;;;;0;0;;;;;;;0;0;0;;;;
2022/10/18 00:51:18;;;;;;;0;0;;;;;;;0;0;0;;;;
2022/10/18 00:52:20;;;;;;;0;0;;;;;;;0;0;0;;;;
2022/10/18 00:53:25;;;;;;;0;0;;;;;;;0;0;0;;;;
2022/10/18 00:54:25;;;;;;;0;0;;;;;;;0;0;0;;;;
2022/10/18 00:55:28;;;;;;;0;0;;;;;;;0;0;0;;;;
2022/10/18 00:56:31;;;;;;;0;0;;;;;;;0;0;0;;;;
2022/10/18 00:57:33;;;;;;;0;0;;;;;;;0;0;0;;;;
2022/10/18 00:58:34;;;;;;;0;0;;;;;;;0;0;0;;;;
2022/10/18 00:59:35;;;;;;;0;0;;;;;;;0;0;0;;;;
2022/10/18 01:00:38;;;;;;;0;0;;;;;;;0;0;0;;;;
2022/10/18 01:01:38;;;;;;;0;0;;;;;;;0;0;0;;;;
2022/10/18 01:02:39;;;;;;;0;0;;;;;;;0;0;0;;;;
2022/10/18 01:03:42;;;;;;;0;0;;;;;;;0;0;0;;;;
2022/10/18 01:04:42;;;;;;;0;0;;;;;;;0;0;0;;;;
2022/10/18 01:05:44;;;;;;;0;0;;;;;;;0;0;0;;;;
2022/10/18 01:06:46;;;;;;;0;0;;;;;;;0;0;0;;;;
2022/10/18 01:07:54;;;;;;;0;0;;;;;;;0;0;0;;;;
2022/10/18 01:09:10;;;;;;;0;0;;;;;;;0;0;0;;;;
2022/10/18 01:10:18;;;;;;;0;0;;;;;;;0;0;0;;;;
2022/10/18 01:11:28;;;;;;;0;0;;;;;;;0;0;0;;;;
2022/10/18 01:12:44;;;;;;;0;0;;;;;;;0;0;0;;;;
2022/10/18 01:13:59;;;;;;;0;0;;;;;;;0;0;0;;;;
2022/10/18 01:15:12;;;;;;;0;0;;;;;;;0;0;0;;;;
2022/10/18 01:16:20;;;;;;;0;0;;;;;;;0;0;0;;;;
2022/10/18 01:17:28;;;;;;;0;0;;;;;;;0;0;0;;;;
2022/10/18 01:18:38;;;;;;;0;0;;;;;;;0;0;0;;;;
2022/10/18 01:19:46;;;;;;;0;0;;;;;;;0;0;0;;;;
2022/10/18 01:21:06;;;;;;;0;0;;;;;;;0;0;0;;;;
2022/10/18 01:22:15;;;;;;;0;0;;;;;;;0;0;0;;;;
2022/10/18 01:23:22;;;;;;;0;0;;;;;;;0;0;0;;;;
2022/10/18 01:24:37;;;;;;;0;0;;;;;;;0;0;0;;;;
2022/10/18 01:25:54;;;;;;;0;0;;;;;;;0;0;0;;;;
2022/10/18 01:27:05;;;;;;;0;0;;;;;;;0;0;0;;;;
2022/10/18 01:28:23;;;;;;;0;0;;;;;;;0;0;0;;;;
2022/10/18 01:29:37;;;;;;;0;0;;;;;;;0;0;0;;;;
2022/10/18 01:30:52;;;;;;;0;0;;;;;;;0;0;0;;;;
2022/10/18 01:31:57;;;;;;;0;0;;;;;;;0;0;0;;;;
2022/10/18 01:33:01;;;;;;;0;0;;;;;;;0;0;0;;;;
2022/10/18 01:34:09;;;;;;;0;0;;;;;;;0;0;0;;;;
2022/10/18 01:35:12;;;;;;;0;0;;;;;;;0;0;0;;;;
2022/10/18 01:36:17;;;;;;;0;0;;;;;;;0;0;0;;;;
2022/10/18 01:37:22;;;;;;;0;0;;;;;;;0;0;0;;;;
2022/10/18 01:38:24;;;;;;;0;0;;;;;;;0;0;0;;;;
2022/10/18 01:39:26;;;;;;;0;0;;;;;;;0;0;0;;;;
2022/10/18 01:40:33;;;;;;;0;0;;;;;;;0;0;0;;;;
2022/10/18 01:41:35;;;;;;;0;0;;;;;;;0;0;0;;;;
2022/10/18 01:42:40;;;;;;;0;0;;;;;;;0;0;0;;;;
2022/10/18 01:43:42;;;;;;;0;0;;;;;;;0;0;0;;;;
2022/10/18 01:44:46;;;;;;;0;0;;;;;;;0;0;0;;;;
2022/10/18 01:45:50;;;;;;;0;0;;;;;;;0;0;0;;;;
2022/10/18 01:46:53;;;;;;;0;0;;;;;;;0;0;0;;;;
2022/10/18 01:47:55;;;;;;;0;0;;;;;;;0;0;0;;;;
2022/10/18 01:48:57;;;;;;;0;0;;;;;;;0;0;0;;;;
2022/10/18 01:49:58;;;;;;;0;0;;;;;;;0;0;0;;;;
2022/10/18 01:51:01;;;;;;;0;0;;;;;;;0;0;0;;;;
2022/10/18 01:52:02;;;;;;;0;0;;;;;;;0;0;0;;;;
2022/10/18 01:53:03;;;;;;;0;0;;;;;;;0;0;0;;;;
2022/10/18 01:54:03;;;;;;;0;0;;;;;;;0;0;0;;;;
2022/10/18 01:55:04;;;;;;;0;0;;;;;;;0;0;0;;;;
2022/10/18 01:56:06;;;;;;;0;0;;;;;;;0;0;0;;;;
2022/10/18 01:57:18;;;;;;;0;0;;;;;;;0;0;0;;;;
2022/10/18 01:58:27;;;;;;;0;0;;;;;;;0;0;0;;;;
2022/10/18 01:59:35;;;;;;;0;0;;;;;;;0;0;0;;;;
2022/10/18 02:00:50;;;;;;;0;0;;;;;;;0;0;0;;;;
2022/10/18 02:02:02;;;;;;;0;0;;;;;;;0;0;0;;;;
2022/10/18 02:03:12;;;;;;;0;0;;;;;;;0;0;0;;;;
2022/10/18 02:04:20;;;;;;;0;0;;;;;;;0;0;0;;;;
2022/10/18 02:05:30;;;;;;;0;0;;;;;;;0;0;0;;;;
2022/10/18 02:06:38;;;;;;;0;0;;;;;;;0;0;0;;;;
2022/10/18 02:07:44;;;;;;;0;0;;;;;;;0;0;0;;;;
2022/10/18 02:08:50;;;;;;;0;0;;;;;;;0;0;0;;;;
2022/10/18 02:09:58;;;;;;;0;0;;;;;;;0;0;0;;;;
2022/10/18 02:11:07;;;;;;;0;0;;;;;;;0;0;0;;;;
2022/10/18 02:12:10;;;;;;;0;0;;;;;;;0;0;0;;;;
2022/10/18 02:13:14;;;;;;;0;0;;;;;;;0;0;0;;;;
2022/10/18 02:14:18;;;;;;;0;0;;;;;;;0;0;0;;;;
2022/10/18 02:15:19;;;;;;;0;0;;;;;;;0;0;0;;;;
2022/10/18 02:16:23;;;;;;;0;0;;;;;;;0;0;0;;;;
2022/10/18 02:17:28;;;;;;;0;0;;;;;;;0;0;0;;;;
2022/10/18 02:18:30;;;;;;;0;0;;;;;;;0;0;0;;;;
2022/10/18 02:19:35;;;;;;;0;0;;;;;;;0;0;0;;;;
2022/10/18 02:20:40;;;;;;;0;0;;;;;;;0;0;0;;;;
2022/10/18 02:21:41;;;;;;;0;0;;;;;;;0;0;0;;;;
2022/10/18 02:22:44;;;;;;;0;0;;;;;;;0;0;0;;;;
2022/10/18 02:23:48;;;;;;;0;0;;;;;;;0;0;0;;;;
2022/10/18 02:24:49;;;;;;;0;0;;;;;;;0;0;0;;;;
2022/10/18 02:25:53;;;;;;;0;0;;;;;;;0;0;0;;;;
2022/10/18 02:26:54;;;;;;;0;0;;;;;;;0;0;0;;;;
2022/10/18 02:27:55;;;;;;;0;0;;;;;;;0;0;0;;;;
2022/10/18 02:28:55;;;;;;;0;0;;;;;;;0;0;0;;;;
2022/10/18 02:29:56;;;;;;;0;0;;;;;;;0;0;0;;;;
2022/10/18 02:30:57;;;;;;;0;0;;;;;;;0;0;0;;;;
2022/10/18 02:32:05;;;;;;;0;0;;;;;;;0;0;0;;;;
2022/10/18 02:33:11;;;;;;;0;0;;;;;;;0;0;0;;;;
2022/10/18 02:34:16;;;;;;;0;0;;;;;;;0;0;0;;;;
2022/10/18 02:35:20;;;;;;;0;0;;;;;;;0;0;0;;;;
2022/10/18 02:36:24;;;;;;;0;0;;;;;;;0;0;0;;;;
2022/10/18 02:37:30;;;;;;;0;0;;;;;;;0;0;0;;;;
2022/10/18 02:38:35;;;;;;;0;0;;;;;;;0;0;0;;;;
2022/10/18 02:39:38;;;;;;;0;0;;;;;;;0;0;0;;;;
2022/10/18 02:40:44;;;;;;;0;0;;;;;;;0;0;0;;;;
2022/10/18 02:41:45;;;;;;;0;0;;;;;;;0;0;0;;;;
2022/10/18 02:42:46;;;;;;;0;0;;;;;;;0;0;0;;;;
2022/10/18 02:43:49;;;;;;;0;0;;;;;;;0;0;0;;;;
2022/10/18 02:44:50;;;;;;;0;0;;;;;;;0;0;0;;;;
2022/10/18 02:45:50;;;;;;;0;0;;;;;;;0;0;0;;;;
2022/10/18 02:46:51;;;;;;;0;0;;;;;;;0;0;0;;;;
2022/10/18 02:47:52;;;;;;;0;0;;;;;;;0;0;0;;;;
2022/10/18 02:48:52;;;;;;;0;0;;;;;;;0;0;0;;;;
2022/10/18 02:49:53;;;;;;;0;0;;;;;;;0;0;0;;;;
2022/10/18 02:50:54;;;;;;;0;0;;;;;;;0;0;0;;;;
2022/10/18 02:51:54;;;;;;;0;0;;;;;;;0;0;0;;;;
2022/10/18 02:52:55;;;;;;;0;0;;;;;;;0;0;0;;;;
2022/10/18 02:53:55;;;;;;;0;0;;;;;;;0;0;0;;;;
2022/10/18 02:54:56;;;;;;;0;0;;;;;;;0;0;0;;;;
2022/10/18 02:55:56;;;;;;;0;0;;;;;;;0;0;0;;;;
2022/10/18 02:56:57;;;;;;;0;0;;;;;;;0;0;0;;;;
2022/10/18 02:57:57;;;;;;;0;0;;;;;;;0;0;0;;;;
2022/10/18 02:58:57;;;;;;;0;0;;;;;;;0;0;0;;;;
2022/10/18 02:59:58;;;;;;;0;0;;;;;;;0;0;0;;;;
2022/10/18 03:00:59;;;;;;;0;0;;;;;;;0;0;0;;;;
2022/10/18 03:01:59;;;;;;;0;0;;;;;;;0;0;0;;;;
2022/10/18 03:03:00;;;;;;;0;0;;;;;;;0;0;0;;;;
2022/10/18 03:04:00;;;;;;;0;0;;;;;;;0;0;0;;;;
2022/10/18 03:05:01;;;;;;;0;0;;;;;;;0;0;0;;;;
2022/10/18 03:06:02;;;;;;;0;0;;;;;;;0;0;0;;;;
2022/10/18 03:07:03;;;;;;;0;0;;;;;;;0;0;0;;;;
2022/10/18 03:08:03;;;;;;;0;0;;;;;;;0;0;0;;;;
2022/10/18 03:09:04;;;;;;;0;0;;;;;;;0;0;0;;;;
2022/10/18 03:10:05;;;;;;;0;0;;;;;;;0;0;0;;;;
2022/10/18 03:11:07;;;;;;;0;0;;;;;;;0;0;0;;;;
2022/10/18 03:12:07;;;;;;;0;0;;;;;;;0;0;0;;;;
2022/10/18 03:13:08;;;;;;;0;0;;;;;;;0;0;0;;;;
2022/10/18 03:14:08;;;;;;;0;0;;;;;;;0;0;0;;;;
2022/10/18 03:15:09;;;;;;;0;0;;;;;;;0;0;0;;;;
2022/10/18 03:16:09;;;;;;;0;0;;;;;;;0;0;0;;;;
2022/10/18 03:17:10;;;;;;;0;0;;;;;;;0;0;0;;;;
2022/10/18 03:18:11;;;;;;;0;0;;;;;;;0;0;0;;;;
2022/10/18 03:19:11;;;;;;;0;0;;;;;;;0;0;0;;;;
2022/10/18 03:20:12;;;;;;;0;0;;;;;;;0;0;0;;;;
2022/10/18 03:21:13;;;;;;;0;0;;;;;;;0;0;0;;;;
2022/10/18 03:22:14;;;;;;;0;0;;;;;;;0;0;0;;;;
2022/10/18 03:23:14;;;;;;;0;0;;;;;;;0;0;0;;;;
2022/10/18 03:24:14;;;;;;;0;0;;;;;;;0;0;0;;;;
2022/10/18 03:25:15;;;;;;;0;0;;;;;;;0;0;0;;;;
2022/10/18 03:26:16;;;;;;;0;0;;;;;;;0;0;0;;;;
2022/10/18 03:27:16;;;;;;;0;0;;;;;;;0;0;0;;;;
2022/10/18 03:28:17;;;;;;;0;0;;;;;;;0;0;0;;;;
2022/10/18 03:29:17;;;;;;;0;0;;;;;;;0;0;0;;;;
2022/10/18 03:30:18;;;;;;;0;0;;;;;;;0;0;0;;;;
2022/10/18 03:31:18;;;;;;;0;0;;;;;;;0;0;0;;;;
2022/10/18 03:32:19;;;;;;;0;0;;;;;;;0;0;0;;;;
2022/10/18 03:33:19;;;;;;;0;0;;;;;;;0;0;0;;;;
2022/10/18 03:34:20;;;;;;;0;0;;;;;;;0;0;0;;;;
2022/10/18 03:35:21;;;;;;;0;0;;;;;;;0;0;0;;;;
2022/10/18 03:36:21;;;;;;;0;0;;;;;;;0;0;0;;;;
2022/10/18 03:37:22;;;;;;;0;0;;;;;;;0;0;0;;;;
2022/10/18 03:38:22;;;;;;;0;0;;;;;;;0;0;0;;;;
2022/10/18 03:39:23;;;;;;;0;0;;;;;;;0;0;0;;;;
2022/10/18 03:40:24;;;;;;;0;0;;;;;;;0;0;0;;;;
2022/10/18 03:41:24;;;;;;;0;0;;;;;;;0;0;0;;;;
2022/10/18 03:42:24;;;;;;;0;0;;;;;;;0;0;0;;;;
2022/10/18 03:43:25;;;;;;;0;0;;;;;;;0;0;0;;;;
2022/10/18 03:44:25;;;;;;;0;0;;;;;;;0;0;0;;;;
2022/10/18 03:45:26;;;;;;;0;0;;;;;;;0;0;0;;;;
2022/10/18 03:46:27;;;;;;;0;0;;;;;;;0;0;0;;;;
2022/10/18 03:47:27;;;;;;;0;0;;;;;;;0;0;0;;;;
2022/10/18 03:48:28;;;;;;;0;0;;;;;;;0;0;0;;;;
2022/10/18 03:49:28;;;;;;;0;0;;;;;;;0;0;0;;;;
2022/10/18 03:50:29;;;;;;;0;0;;;;;;;0;0;0;;;;
2022/10/18 03:51:29;;;;;;;0;0;;;;;;;0;0;0;;;;
2022/10/18 03:52:30;;;;;;;0;0;;;;;;;0;0;0;;;;
2022/10/18 03:53:31;;;;;;;0;0;;;;;;;0;0;0;;;;
2022/10/18 03:54:31;;;;;;;0;0;;;;;;;0;0;0;;;;
2022/10/18 03:55:32;;;;;;;0;0;;;;;;;0;0;0;;;;
2022/10/18 03:56:32;;;;;;;0;0;;;;;;;0;0;0;;;;
2022/10/18 03:57:33;;;;;;;0;0;;;;;;;0;0;0;;;;
2022/10/18 03:58:33;;;;;;;0;0;;;;;;;0;0;0;;;;
2022/10/18 03:59:34;;;;;;;0;0;;;;;;;0;0;0;;;;
2022/10/18 04:00:35;;;;;;;0;0;;;;;;;0;0;0;;;;
2022/10/18 04:01:35;;;;;;;0;0;;;;;;;0;0;0;;;;
2022/10/18 04:02:36;;;;;;;0;0;;;;;;;0;0;0;;;;
2022/10/18 04:03:37;;;;;;;0;0;;;;;;;0;0;0;;;;
2022/10/18 04:04:37;;;;;;;0;0;;;;;;;0;0;0;;;;
2022/10/18 04:05:38;;;;;;;0;0;;;;;;;0;0;0;;;;
2022/10/18 04:06:38;;;;;;;0;0;;;;;;;0;0;0;;;;
2022/10/18 04:07:39;;;;;;;0;0;;;;;;;0;0;0;;;;
2022/10/18 04:08:39;;;;;;;0;0;;;;;;;0;0;0;;;;
2022/10/18 04:09:40;;;;;;;0;0;;;;;;;0;0;0;;;;
2022/10/18 04:10:40;;;;;;;0;0;;;;;;;0;0;0;;;;
2022/10/18 04:11:41;;;;;;;0;0;;;;;;;0;0;0;;;;
2022/10/18 04:12:42;;;;;;;0;0;;;;;;;0;0;0;;;;
2022/10/18 04:13:42;;;;;;;0;0;;;;;;;0;0;0;;;;
2022/10/18 04:14:43;;;;;;;0;0;;;;;;;0;0;0;;;;
2022/10/18 04:15:43;;;;;;;0;0;;;;;;;0;0;0;;;;
2022/10/18 04:16:44;;;;;;;0;0;;;;;;;0;0;0;;;;
2022/10/18 04:17:44;;;;;;;0;0;;;;;;;0;0;0;;;;
2022/10/18 04:18:45;;;;;;;0;0;;;;;;;0;0;0;;;;
2022/10/18 04:19:45;;;;;;;0;0;;;;;;;0;0;0;;;;
2022/10/18 04:20:46;;;;;;;0;0;;;;;;;0;0;0;;;;
2022/10/18 04:21:46;;;;;;;0;0;;;;;;;0;0;0;;;;
2022/10/18 04:22:47;;;;;;;0;0;;;;;;;0;0;0;;;;
2022/10/18 04:23:48;;;;;;;0;0;;;;;;;0;0;0;;;;
2022/10/18 04:24:51;;;;;;;0;0;;;;;;;0;0;0;;;;
2022/10/18 04:25:52;;;;;;;0;0;;;;;;;0;0;0;;;;
2022/10/18 04:26:53;;;;;;;0;0;;;;;;;0;0;0;;;;
2022/10/18 04:27:53;;;;;;;0;0;;;;;;;0;0;0;;;;
2022/10/18 04:28:54;;;;;;;0;0;;;;;;;0;0;0;;;;
2022/10/18 04:29:54;;;;;;;0;0;;;;;;;0;0;0;;;;
2022/10/18 04:30:54;;;;;;;0;0;;;;;;;0;0;0;;;;
2022/10/18 04:31:55;;;;;;;0;0;;;;;;;0;0;0;;;;
2022/10/18 04:32:56;;;;;;;0;0;;;;;;;0;0;0;;;;
2022/10/18 04:33:56;;;;;;;0;0;;;;;;;0;0;0;;;;
2022/10/18 04:34:57;;;;;;;0;0;;;;;;;0;0;0;;;;
2022/10/18 04:35:57;;;;;;;0;0;;;;;;;0;0;0;;;;
2022/10/18 04:36:58;;;;;;;0;0;;;;;;;0;0;0;;;;
2022/10/18 04:37:58;;;;;;;0;0;;;;;;;0;0;0;;;;
2022/10/18 04:38:59;;;;;;;0;0;;;;;;;0;0;0;;;;
2022/10/18 04:39:59;;;;;;;0;0;;;;;;;0;0;0;;;;
2022/10/18 04:41:00;;;;;;;0;0;;;;;;;0;0;0;;;;
2022/10/18 04:42:00;;;;;;;0;0;;;;;;;0;0;0;;;;
2022/10/18 04:43:01;;;;;;;0;0;;;;;;;0;0;0;;;;
2022/10/18 04:44:02;;;;;;;0;0;;;;;;;0;0;0;;;;
2022/10/18 04:45:02;;;;;;;0;0;;;;;;;0;0;0;;;;
2022/10/18 04:46:03;;;;;;;0;0;;;;;;;0;0;0;;;;
2022/10/18 04:47:04;;;;;;;0;0;;;;;;;0;0;0;;;;
2022/10/18 04:48:05;;;;;;;0;0;;;;;;;0;0;0;;;;
2022/10/18 04:49:05;;;;;;;0;0;;;;;;;0;0;0;;;;
2022/10/18 04:50:06;;;;;;;0;0;;;;;;;0;0;0;;;;
2022/10/18 04:51:07;;;;;;;0;0;;;;;;;0;0;0;;;;
2022/10/18 04:52:08;;;;;;;0;0;;;;;;;0;0;0;;;;
2022/10/18 04:53:09;;;;;;;0;0;;;;;;;0;0;0;;;;
2022/10/18 04:54:09;;;;;;;0;0;;;;;;;0;0;0;;;;
2022/10/18 04:55:10;;;;;;;0;0;;;;;;;0;0;0;;;;
2022/10/18 04:56:10;;;;;;;0;0;;;;;;;0;0;0;;;;
2022/10/18 04:57:11;;;;;;;0;0;;;;;;;0;0;0;;;;
2022/10/18 04:58:11;;;;;;;0;0;;;;;;;0;0;0;;;;
2022/10/18 04:59:12;;;;;;;0;0;;;;;;;0;0;0;;;;
2022/10/18 05:00:13;;;;;;;0;0;;;;;;;0;0;0;;;;
2022/10/18 05:01:14;;;;;;;0;0;;;;;;;0;0;0;;;;
2022/10/18 05:02:15;;;;;;;0;0;;;;;;;0;0;0;;;;
2022/10/18 05:03:15;;;;;;;0;0;;;;;;;0;0;0;;;;
2022/10/18 05:04:16;;;;;;;0;0;;;;;;;0;0;0;;;;
2022/10/18 05:05:17;;;;;;;0;0;;;;;;;0;0;0;;;;
2022/10/18 05:06:17;;;;;;;0;0;;;;;;;0;0;0;;;;
2022/10/18 05:07:18;;;;;;;0;0;;;;;;;0;0;0;;;;
2022/10/18 05:08:18;;;;;;;0;0;;;;;;;0;0;0;;;;
2022/10/18 05:09:23;;;;;;;0;0;;;;;;;0;0;0;;;;
2022/10/18 05:10:23;;;;;;;0;0;;;;;;;0;0;0;;;;
2022/10/18 05:11:24;;;;;;;0;0;;;;;;;0;0;0;;;;
2022/10/18 05:12:25;;;;;;;0;0;;;;;;;0;0;0;;;;
2022/10/18 05:13:25;;;;;;;0;0;;;;;;;0;0;0;;;;
2022/10/18 05:14:26;;;;;;;0;0;;;;;;;0;0;0;;;;
2022/10/18 05:15:26;;;;;;;0;0;;;;;;;0;0;0;;;;
2022/10/18 05:16:27;;;;;;;0;0;;;;;;;0;0;0;;;;
2022/10/18 05:17:27;;;;;;;0;0;;;;;;;0;0;0;;;;
2022/10/18 05:18:28;;;;;;;0;0;;;;;;;0;0;0;;;;
2022/10/18 05:19:29;;;;;;;0;0;;;;;;;0;0;0;;;;
2022/10/18 05:20:29;;;;;;;0;0;;;;;;;0;0;0;;;;
2022/10/18 05:21:30;;;;;;;0;0;;;;;;;0;0;0;;;;
2022/10/18 05:22:30;;;;;;;0;0;;;;;;;0;0;0;;;;
2022/10/18 05:23:31;;;;;;;0;0;;;;;;;0;0;0;;;;
2022/10/18 05:24:31;;;;;;;0;0;;;;;;;0;0;0;;;;
2022/10/18 05:25:32;;;;;;;0;0;;;;;;;0;0;0;;;;
2022/10/18 05:26:32;;;;;;;0;0;;;;;;;0;0;0;;;;
2022/10/18 05:27:33;;;;;;;0;0;;;;;;;0;0;0;;;;
2022/10/18 05:28:34;;;;;;;0;0;;;;;;;0;0;0;;;;
2022/10/18 05:29:34;;;;;;;0;0;;;;;;;0;0;0;;;;
2022/10/18 05:30:35;;;;;;;0;0;;;;;;;0;0;0;;;;
2022/10/18 05:31:36;;;;;;;0;0;;;;;;;0;0;0;;;;
2022/10/18 05:32:37;;;;;;;0;0;;;;;;;0;0;0;;;;
2022/10/18 05:33:37;;;;;;;0;0;;;;;;;0;0;0;;;;
2022/10/18 05:34:38;;;;;;;0;0;;;;;;;0;0;0;;;;
2022/10/18 05:35:38;;;;;;;0;0;;;;;;;0;0;0;;;;
2022/10/18 05:36:39;;;;;;;0;0;;;;;;;0;0;0;;;;
2022/10/18 05:37:39;;;;;;;0;0;;;;;;;0;0;0;;;;
2022/10/18 05:38:41;;;;;;;0;0;;;;;;;0;0;0;;;;
2022/10/18 05:39:42;;;;;;;0;0;;;;;;;0;0;0;;;;
2022/10/18 05:40:43;;;;;;;0;0;;;;;;;0;0;0;;;;
2022/10/18 05:41:43;;;;;;;0;0;;;;;;;0;0;0;;;;
2022/10/18 05:42:44;;;;;;;0;0;;;;;;;0;0;0;;;;
2022/10/18 05:43:44;;;;;;;0;0;;;;;;;0;0;0;;;;
2022/10/18 05:44:45;;;;;;;0;0;;;;;;;0;0;0;;;;
2022/10/18 05:45:46;;;;;;;0;0;;;;;;;0;0;0;;;;
2022/10/18 05:46:47;;;;;;;0;0;;;;;;;0;0;0;;;;
2022/10/18 05:47:47;;;;;;;0;0;;;;;;;0;0;0;;;;
2022/10/18 05:48:48;;;;;;;0;0;;;;;;;0;0;0;;;;
2022/10/18 05:49:49;;;;;;;0;0;;;;;;;0;0;0;;;;
2022/10/18 05:50:49;;;;;;;0;0;;;;;;;0;0;0;;;;
2022/10/18 05:51:50;;;;;;;0;0;;;;;;;0;0;0;;;;
2022/10/18 05:52:50;;;;;;;0;0;;;;;;;0;0;0;;;;
2022/10/18 05:53:54;;;;;;;0;0;;;;;;;0;0;0;;;;
2022/10/18 05:54:55;;;;;;;0;0;;;;;;;0;0;0;;;;
2022/10/18 05:55:55;;;;;;;0;0;;;;;;;0;0;0;;;;
2022/10/18 05:56:59;;;;;;;0;0;;;;;;;0;0;0;;;;
2022/10/18 05:57:59;;;;;;;0;0;;;;;;;0;0;0;;;;
2022/10/18 05:59:01;;;;;;;0;0;;;;;;;0;0;0;;;;
2022/10/18 06:00:02;;;;;;;0;0;;;;;;;0;0;0;;;;
2022/10/18 06:01:04;;;;;;;0;0;;;;;;;0;0;0;;;;
2022/10/18 06:02:05;;;;;;;0;0;;;;;;;0;0;0;;;;
2022/10/18 06:03:05;;;;;;;0;0;;;;;;;0;0;0;;;;
2022/10/18 06:04:06;;;;;;;0;0;;;;;;;0;0;0;;;;
2022/10/18 06:05:07;;;;;;;0;0;;;;;;;0;0;0;;;;
2022/10/18 06:06:08;;;;;;;0;0;;;;;;;0;0;0;;;;
2022/10/18 06:07:11;;;;;;;0;0;;;;;;;0;0;0;;;;
2022/10/18 06:08:12;;;;;;;0;0;;;;;;;0;0;0;;;;
2022/10/18 06:09:12;;;;;;;0;0;;;;;;;0;0;0;;;;
2022/10/18 06:10:12;;;;;;;0;0;;;;;;;0;0;0;;;;
2022/10/18 06:11:13;;;;;;;0;0;;;;;;;0;0;0;;;;
2022/10/18 06:12:16;;;;;;;0;0;;;;;;;0;0;0;;;;
2022/10/18 06:13:17;;;;;;;0;0;;;;;;;0;0;0;;;;
2022/10/18 06:14:17;;;;;;;0;0;;;;;;;0;0;0;;;;
2022/10/18 06:15:17;;;;;;;0;0;;;;;;;0;0;0;;;;
2022/10/18 06:16:18;;;;;;;0;0;;;;;;;0;0;0;;;;
2022/10/18 06:17:20;;;;;;;0;0;;;;;;;0;0;0;;;;
2022/10/18 06:18:21;;;;;;;0;0;;;;;;;0;0;0;;;;
2022/10/18 06:19:21;;;;;;;0;0;;;;;;;0;0;0;;;;
2022/10/18 06:20:22;;;;;;;0;0;;;;;;;0;0;0;;;;
2022/10/18 06:21:23;;;;;;;0;0;;;;;;;0;0;0;;;;
2022/10/18 06:22:24;;;;;;;0;0;;;;;;;0;0;0;;;;
2022/10/18 06:23:24;;;;;;;0;0;;;;;;;0;0;0;;;;
2022/10/18 06:24:25;;;;;;;0;0;;;;;;;0;0;0;;;;
2022/10/18 06:25:26;;;;;;;0;0;;;;;;;0;0;0;;;;
2022/10/18 06:26:26;;;;;;;0;0;;;;;;;0;0;0;;;;
2022/10/18 06:27:27;;;;;;;0;0;;;;;;;0;0;0;;;;
2022/10/18 06:28:28;;;;;;;0;0;;;;;;;0;0;0;;;;
2022/10/18 06:29:29;;;;;;;0;0;;;;;;;0;0;0;;;;
2022/10/18 06:30:29;;;;;;;0;0;;;;;;;0;0;0;;;;
2022/10/18 06:31:30;;;;;;;0;0;;;;;;;0;0;0;;;;
2022/10/18 06:32:30;;;;;;;0;0;;;;;;;0;0;0;;;;
2022/10/18 06:33:31;;;;;;;0;0;;;;;;;0;0;0;;;;
2022/10/18 06:34:33;;;;;;;0;0;;;;;;;0;0;0;;;;
2022/10/18 06:35:34;;;;;;;0;0;;;;;;;0;0;0;;;;
2022/10/18 06:36:34;;;;;;;0;0;;;;;;;0;0;0;;;;
2022/10/18 06:37:36;;;;;;;0;0;;;;;;;0;0;0;;;;
2022/10/18 06:38:37;;;;;;;0;0;;;;;;;0;0;0;;;;
2022/10/18 06:39:37;;;;;;;0;0;;;;;;;0;0;0;;;;
2022/10/18 06:40:38;;;;;;;0;0;;;;;;;0;0;0;;;;
2022/10/18 06:41:38;;;;;;;0;0;;;;;;;0;0;0;;;;
2022/10/18 06:42:39;;;;;;;0;0;;;;;;;0;0;0;;;;
2022/10/18 06:43:39;;;;;;;0;0;;;;;;;0;0;0;;;;
2022/10/18 06:44:40;;;;;;;0;0;;;;;;;0;0;0;;;;
2022/10/18 06:45:40;;;;;;;0;0;;;;;;;0;0;0;;;;
2022/10/18 06:46:41;;;;;;;0;0;;;;;;;0;0;0;;;;
2022/10/18 06:47:42;;;;;;;0;0;;;;;;;0;0;0;;;;
2022/10/18 06:48:43;;;;;;;0;0;;;;;;;0;0;0;;;;
2022/10/18 06:49:44;;;;;;;0;0;;;;;;;0;0;0;;;;
2022/10/18 06:50:44;;;;;;;0;0;;;;;;;0;0;0;;;;
2022/10/18 06:51:50;;;;;;;0;0;;;;;;;0;0;0;;;;
2022/10/18 06:52:53;;;;;;;0;0;;;;;;;0;0;0;;;;
2022/10/18 06:53:53;;;;;;;0;0;;;;;;;0;0;0;;;;
2022/10/18 06:54:53;;;;;;;0;0;;;;;;;0;0;0;;;;
2022/10/18 06:55:54;;;;;;;0;0;;;;;;;0;0;0;;;;
2022/10/18 06:56:58;;;;;;;0;0;;;;;;;0;0;0;;;;
2022/10/18 06:57:59;;;;;;;0;0;;;;;;;0;0;0;;;;
2022/10/18 06:58:59;;;;;;;0;0;;;;;;;0;0;0;;;;
2022/10/18 07:00:00;;;;;;;0;0;;;;;;;0;0;0;;;;
2022/10/18 07:01:02;;;;;;;0;0;;;;;;;0;0;0;;;;
2022/10/18 07:02:05;;;;;;;0;0;;;;;;;0;0;0;;;;
2022/10/18 07:03:06;;;;;;;0;0;;;;;;;0;0;0;;;;
2022/10/18 07:04:06;;;;;;;0;0;;;;;;;0;0;0;;;;
2022/10/18 07:05:07;;;;;;;0;0;;;;;;;0;0;0;;;;
2022/10/18 07:06:09;;;;;;;0;0;;;;;;;0;0;0;;;;
2022/10/18 07:07:11;;;;;;;0;0;;;;;;;0;0;0;;;;
2022/10/18 07:08:12;;;;;;;0;0;;;;;;;0;0;0;;;;
2022/10/18 07:09:12;;;;;;;0;0;;;;;;;0;0;0;;;;
2022/10/18 07:10:13;;;;;;;0;0;;;;;;;0;0;0;;;;
2022/10/18 07:11:13;;;;;;;0;0;;;;;;;0;0;0;;;;
2022/10/18 07:12:16;;;;;;;0;0;;;;;;;0;0;0;;;;
2022/10/18 07:13:17;;;;;;;0;0;;;;;;;0;0;0;;;;
2022/10/18 07:14:17;;;;;;;0;0;;;;;;;0;0;0;;;;
2022/10/18 07:15:21;;;;;;;0;0;;;;;;;0;0;0;;;;
2022/10/18 07:16:21;;;;;;;0;0;;;;;;;0;0;0;;;;
2022/10/18 07:17:22;;;;;;;0;0;;;;;;;0;0;0;;;;
2022/10/18 07:18:23;;;;;;;0;0;;;;;;;0;0;0;;;;
2022/10/18 07:19:23;;;;;;;0;0;;;;;;;0;0;0;;;;
2022/10/18 07:20:24;;;;;;;0;0;;;;;;;0;0;0;;;;
2022/10/18 07:21:24;;;;;;;0;0;;;;;;;0;0;0;;;;
2022/10/18 07:22:25;;;;;;;0;0;;;;;;;0;0;0;;;;
2022/10/18 07:23:26;;;;;;;0;0;;;;;;;0;0;0;;;;
2022/10/18 07:24:26;;;;;;;0;0;;;;;;;0;0;0;;;;
2022/10/18 07:25:28;;;;;;;0;0;;;;;;;0;0;0;;;;
2022/10/18 07:26:29;;;;;;;0;0;;;;;;;0;0;0;;;;
2022/10/18 07:27:33;;;;;;;0;0;;;;;;;0;0;0;;;;
2022/10/18 07:28:35;;;;;;;0;0;;;;;;;0;0;0;;;;
2022/10/18 07:29:37;;;;;;;0;0;;;;;;;0;0;0;;;;
2022/10/18 07:30:37;;;;;;;0;0;;;;;;;0;0;0;;;;
2022/10/18 07:31:38;;;;;;;0;0;;;;;;;0;0;0;;;;
2022/10/18 07:32:38;;;;;;;0;0;;;;;;;0;0;0;;;;
2022/10/18 07:33:41;;;;;;;0;0;;;;;;;0;0;0;;;;
2022/10/18 07:34:42;;;;;;;0;0;;;;;;;0;0;0;;;;
2022/10/18 07:35:42;;;;;;;0;0;;;;;;;0;0;0;;;;
2022/10/18 07:36:43;;;;;;;0;0;;;;;;;0;0;0;;;;
2022/10/18 07:37:43;;;;;;;0;0;;;;;;;0;0;0;;;;
2022/10/18 07:38:44;;;;;;;0;0;;;;;;;0;0;0;;;;
2022/10/18 07:39:44;;;;;;;0;0;;;;;;;0;0;0;;;;
2022/10/18 07:40:45;;;;;;;0;0;;;;;;;0;0;0;;;;
2022/10/18 07:41:46;;;;;;;0;0;;;;;;;0;0;0;;;;
2022/10/18 07:42:46;;;;;;;0;0;;;;;;;0;0;0;;;;
2022/10/18 07:43:47;;;;;;;0;0;;;;;;;0;0;0;;;;
2022/10/18 07:44:49;;;;;;;0;0;;;;;;;0;0;0;;;;
2022/10/18 07:45:50;;;;;;;0;0;;;;;;;0;0;0;;;;
2022/10/18 07:46:51;;;;;;;0;0;;;;;;;0;0;0;;;;
2022/10/18 07:47:52;;;;;;;0;0;;;;;;;0;0;0;;;;
2022/10/18 07:48:54;;;;;;;0;0;;;;;;;0;0;0;;;;
2022/10/18 07:49:55;;;;;;;1.85;1.5;;;;;;;15.78;100;96297.92;;;;
2022/10/18 07:50:55;;;;;;;1.85;1.5;;;;;;;15.78;100;96297.92;;;;
2022/10/18 07:51:57;;;;;;;1.85;1.5;;;;;;;15.78;100;96297.92;;;;
2022/10/18 07:52:58;;;;;;;1.85;1.5;;;;;;;15.78;100;96297.92;;;;
2022/10/18 07:53:58;;;;;;;1.85;1.5;;;;;;;15.78;100;96297.92;;;;
2022/10/18 07:54:59;;;;;;;1.85;1.5;;;;;;;15.78;100;96297.92;;;;
2022/10/18 07:55:59;;;;;;;1.85;1.5;;;;;;;15.78;100;96297.92;;;;
2022/10/18 07:57:02;;;;;;;1.85;1.5;;;;;;;15.78;100;96297.92;;;;
2022/10/18 07:58:03;;;;;;;1.85;1.5;;;;;;;15.78;100;96297.92;;;;
2022/10/18 07:59:03;;;;;;;1.85;1.5;;;;;;;15.78;100;96297.92;;;;
2022/10/18 08:00:04;;;;;;;1.85;1.5;;;;;;;15.78;100;96297.92;;;;
2022/10/18 08:01:06;;;;;;;1.9;1.6;;;;;;;17.73;100;96306.64;;;;
2022/10/18 08:02:08;;;;;;;1.9;1.6;;;;;;;17.73;100;96306.64;;;;
2022/10/18 08:03:08;;;;;;;1.9;1.6;;;;;;;17.73;100;96306.64;;;;
2022/10/18 08:04:09;;;;;;;1.9;1.6;;;;;;;17.73;100;96306.64;;;;
2022/10/18 08:05:10;;;;;;;1.9;1.6;;;;;;;17.73;100;96306.64;;;;
2022/10/18 08:06:10;;;;;;;1.9;1.6;;;;;;;17.73;100;96306.64;;;;
2022/10/18 08:07:13;;;;;;;1.9;1.6;;;;;;;17.73;100;96306.64;;;;
2022/10/18 08:08:13;;;;;;;1.9;1.6;;;;;;;17.73;100;96306.64;;;;
2022/10/18 08:09:14;;;;;;;1.9;1.6;;;;;;;17.73;100;96306.64;;;;
2022/10/18 08:10:14;;;;;;;1.9;1.6;;;;;;;17.73;100;96306.64;;;;
2022/10/18 08:11:15;;;;;;;2.05;1.85;;;;;;;22.34;84.23535;96300.69;;;;
2022/10/18 08:12:18;;;;;;;2.05;1.85;;;;;;;22.34;84.23535;96300.69;;;;
2022/10/18 08:13:18;;;;;;;2.05;1.85;;;;;;;22.34;84.23535;96300.69;;;;
2022/10/18 08:14:19;;;;;;;2.05;1.85;;;;;;;22.34;84.23535;96300.69;;;;
2022/10/18 08:15:22;;;;;;;2.05;1.85;;;;;;;22.34;84.23535;96300.69;;;;
2022/10/18 08:16:23;;;;;;;2.05;1.85;;;;;;;22.34;84.23535;96300.69;;;;
2022/10/18 08:17:26;;;;;;;2.05;1.85;;;;;;;22.34;84.23535;96300.69;;;;
2022/10/18 08:18:26;;;;;;;2.05;1.85;;;;;;;22.34;84.23535;96300.69;;;;
2022/10/18 08:19:27;;;;;;;2.05;1.85;;;;;;;22.34;84.23535;96300.69;;;;